sensor_id;sensor_type;location;lat;lon;timestamp;pressure;altitude;pressure_sealevel;temperature;humidity
50226;BME280;36113;50.742;6.432;2023-02-20T00:01:17;146115.28;;;4.55;100.00
50226;BME280;36113;50.742;6.432;2023-02-20T00:03:44;146148.94;;;4.68;100.00
50226;BME280;36113;50.742;6.432;2023-02-20T00:06:09;146105.34;;;4.50;100.00
50226;BME280;36113;50.742;6.432;2023-02-20T00:08:34;146166.41;;;4.76;100.00
50226;BME280;36113;50.742;6.432;2023-02-20T00:11:00;146124.00;;;4.58;100.00
50226;BME280;36113;50.742;6.432;2023-02-20T00:13:26;146171.38;;;4.78;100.00
50226;BME280;36113;50.742;6.432;2023-02-20T00:15:51;146092.88;;;4.45;100.00
50226;BME280;36113;50.742;6.432;2023-02-20T00:18:17;146183.84;;;4.83;100.00
50226;BME280;36113;50.742;6.432;2023-02-20T00:20:43;146190.09;;;4.85;100.00
50226;BME280;36113;50.742;6.432;2023-02-20T00:23:08;146186.34;;;4.84;100.00
50226;BME280;36113;50.742;6.432;2023-02-20T00:25:33;146176.41;;;4.80;100.00
50226;BME280;36113;50.742;6.432;2023-02-20T00:27:59;146180.16;;;4.81;100.00
50226;BME280;36113;50.742;6.432;2023-02-20T00:30:24;146182.63;;;4.82;100.00
50226;BME280;36113;50.742;6.432;2023-02-20T00:32:51;146181.38;;;4.82;100.00
50226;BME280;36113;50.742;6.432;2023-02-20T00:35:18;146152.69;;;4.70;100.00
50226;BME280;36113;50.742;6.432;2023-02-20T00:37:45;146119.03;;;4.56;100.00
50226;BME280;36113;50.742;6.432;2023-02-20T00:40:11;146157.66;;;4.72;100.00
50226;BME280;36113;50.742;6.432;2023-02-20T00:42:37;146155.19;;;4.71;100.00
50226;BME280;36113;50.742;6.432;2023-02-20T00:45:03;146137.72;;;4.64;100.00
50226;BME280;36113;50.742;6.432;2023-02-20T00:47:28;146163.94;;;4.75;100.00
50226;BME280;36113;50.742;6.432;2023-02-20T00:49:54;146165.16;;;4.75;100.00
50226;BME280;36113;50.742;6.432;2023-02-20T00:52:19;146151.47;;;4.69;100.00
50226;BME280;36113;50.742;6.432;2023-02-20T00:54:44;146151.47;;;4.69;100.00
50226;BME280;36113;50.742;6.432;2023-02-20T00:57:09;146075.38;;;4.38;100.00
50226;BME280;36113;50.742;6.432;2023-02-20T00:59:35;146176.41;;;4.80;100.00
50226;BME280;36113;50.742;6.432;2023-02-20T01:02:00;146167.69;;;4.76;100.00
50226;BME280;36113;50.742;6.432;2023-02-20T01:04:25;146126.53;;;4.59;100.00
50226;BME280;36113;50.742;6.432;2023-02-20T01:06:51;146168.91;;;4.77;100.00
50226;BME280;36113;50.742;6.432;2023-02-20T01:09:16;146176.41;;;4.80;100.00
50226;BME280;36113;50.742;6.432;2023-02-20T01:11:42;146187.59;;;4.84;100.00
50226;BME280;36113;50.742;6.432;2023-02-20T01:14:08;146147.72;;;4.68;100.00
50226;BME280;36113;50.742;6.432;2023-02-20T01:16:33;146197.59;;;4.88;100.00
50226;BME280;36113;50.742;6.432;2023-02-20T01:18:59;146213.81;;;4.95;100.00
50226;BME280;36113;50.742;6.432;2023-02-20T01:21:24;146168.91;;;4.77;100.00
50226;BME280;36113;50.742;6.432;2023-02-20T01:23:49;146198.81;;;4.89;100.00
50226;BME280;36113;50.742;6.432;2023-02-20T01:26:15;146227.53;;;5.01;100.00
50226;BME280;36113;50.742;6.432;2023-02-20T01:28:44;146216.28;;;4.96;100.00
50226;BME280;36113;50.742;6.432;2023-02-20T01:31:10;146235.00;;;5.04;100.00
50226;BME280;36113;50.742;6.432;2023-02-20T01:33:35;146217.50;;;4.97;100.00
50226;BME280;36113;50.742;6.432;2023-02-20T01:36:00;146213.81;;;4.95;100.00
50226;BME280;36113;50.742;6.432;2023-02-20T01:38:26;146217.50;;;4.97;100.00
50226;BME280;36113;50.742;6.432;2023-02-20T01:40:51;146185.13;;;4.83;100.00
50226;BME280;36113;50.742;6.432;2023-02-20T01:43:17;146200.06;;;4.89;100.00
50226;BME280;36113;50.742;6.432;2023-02-20T01:45:42;146221.25;;;4.98;100.00
50226;BME280;36113;50.742;6.432;2023-02-20T01:48:34;146233.72;;;5.03;100.00
50226;BME280;36113;50.742;6.432;2023-02-20T01:50:59;146218.78;;;4.97;100.00
50226;BME280;36113;50.742;6.432;2023-02-20T01:53:27;146187.59;;;4.84;100.00
50226;BME280;36113;50.742;6.432;2023-02-20T01:55:58;146227.53;;;5.01;100.00
50226;BME280;36113;50.742;6.432;2023-02-20T01:58:32;146200.06;;;4.89;100.00
50226;BME280;36113;50.742;6.432;2023-02-20T02:00:59;146236.25;;;5.04;100.00
50226;BME280;36113;50.742;6.432;2023-02-20T02:03:28;146240.00;;;5.06;100.00
50226;BME280;36113;50.742;6.432;2023-02-20T02:05:59;146191.34;;;4.86;100.00
50226;BME280;36113;50.742;6.432;2023-02-20T02:08:27;146230.00;;;5.02;100.00
50226;BME280;36113;50.742;6.432;2023-02-20T02:10:58;146247.50;;;5.09;100.00
50226;BME280;36113;50.742;6.432;2023-02-20T02:13:26;146212.53;;;4.95;100.00
50226;BME280;36113;50.742;6.432;2023-02-20T02:15:53;146247.50;;;5.09;100.00
50226;BME280;36113;50.742;6.432;2023-02-20T02:21:46;146222.53;;;4.99;100.00
50226;BME280;36113;50.742;6.432;2023-02-20T02:30:11;146226.28;;;5.00;100.00
50226;BME280;36113;50.742;6.432;2023-02-20T02:35:59;146206.31;;;4.92;100.00
50226;BME280;36113;50.742;6.432;2023-02-20T02:41:41;146198.81;;;4.89;100.00
50226;BME280;36113;50.742;6.432;2023-02-20T02:49:13;146201.34;;;4.90;100.00
50226;BME280;36113;50.742;6.432;2023-02-20T02:51:43;146203.81;;;4.91;100.00
50226;BME280;36113;50.742;6.432;2023-02-20T02:54:16;146201.34;;;4.90;100.00
50226;BME280;36113;50.742;6.432;2023-02-20T02:56:44;146182.63;;;4.82;100.00
50226;BME280;36113;50.742;6.432;2023-02-20T02:59:13;146172.66;;;4.78;100.00
50226;BME280;36113;50.742;6.432;2023-02-20T03:01:47;146192.56;;;4.86;100.00
50226;BME280;36113;50.742;6.432;2023-02-20T03:04:13;146170.16;;;4.77;100.00
50226;BME280;36113;50.742;6.432;2023-02-20T03:06:47;146171.38;;;4.78;100.00
50226;BME280;36113;50.742;6.432;2023-02-20T03:09:19;146201.34;;;4.90;100.00
50226;BME280;36113;50.742;6.432;2023-02-20T03:11:50;146198.81;;;4.89;100.00
50226;BME280;36113;50.742;6.432;2023-02-20T03:14:20;146152.69;;;4.70;100.00
50226;BME280;36113;50.742;6.432;2023-02-20T03:17:23;146155.19;;;4.71;100.00
50226;BME280;36113;50.742;6.432;2023-02-20T03:19:54;146153.94;;;4.70;100.00
50226;BME280;36113;50.742;6.432;2023-02-20T03:22:28;146183.84;;;4.83;100.00
50226;BME280;36113;50.742;6.432;2023-02-20T03:25:11;146200.06;;;4.89;100.00
50226;BME280;36113;50.742;6.432;2023-02-20T03:28:15;146216.28;;;4.96;100.00
50226;BME280;36113;50.742;6.432;2023-02-20T03:30:55;146235.00;;;5.04;100.00
50226;BME280;36113;50.742;6.432;2023-02-20T03:33:30;146244.97;;;5.08;100.00
50226;BME280;36113;50.742;6.432;2023-02-20T03:36:19;146223.78;;;4.99;100.00
50226;BME280;36113;50.742;6.432;2023-02-20T03:39:11;146251.25;;;5.11;100.00
50226;BME280;36113;50.742;6.432;2023-02-20T03:41:58;146249.97;;;5.10;100.00
50226;BME280;36113;50.742;6.432;2023-02-20T03:44:43;146236.25;;;5.04;100.00
50226;BME280;36113;50.742;6.432;2023-02-20T03:47:12;146254.94;;;5.12;100.00
50226;BME280;36113;50.742;6.432;2023-02-20T03:49:41;146257.44;;;5.13;100.00
50226;BME280;36113;50.742;6.432;2023-02-20T03:52:07;146257.44;;;5.13;100.00
50226;BME280;36113;50.742;6.432;2023-02-20T03:54:34;146262.44;;;5.15;100.00
50226;BME280;36113;50.742;6.432;2023-02-20T03:57:01;146274.91;;;5.20;100.00
50226;BME280;36113;50.742;6.432;2023-02-20T03:59:32;146238.75;;;5.05;100.00
50226;BME280;36113;50.742;6.432;2023-02-20T04:02:05;146249.97;;;5.10;100.00
50226;BME280;36113;50.742;6.432;2023-02-20T04:04:37;146288.66;;;5.26;100.00
50226;BME280;36113;50.742;6.432;2023-02-20T04:07:09;146293.63;;;5.28;100.00
50226;BME280;36113;50.742;6.432;2023-02-20T04:09:37;146303.59;;;5.32;100.00
50226;BME280;36113;50.742;6.432;2023-02-20T04:12:16;146311.09;;;5.35;100.00
50226;BME280;36113;50.742;6.432;2023-02-20T04:14:45;146279.88;;;5.22;100.00
50226;BME280;36113;50.742;6.432;2023-02-20T04:17:13;146317.31;;;5.38;100.00
50226;BME280;36113;50.742;6.432;2023-02-20T04:19:41;146293.63;;;5.28;100.00
50226;BME280;36113;50.742;6.432;2023-02-20T04:22:09;146324.81;;;5.41;100.00
50226;BME280;36113;50.742;6.432;2023-02-20T04:24:49;146288.66;;;5.26;100.00
50226;BME280;36113;50.742;6.432;2023-02-20T04:27:17;146314.84;;;5.37;100.00
50226;BME280;36113;50.742;6.432;2023-02-20T04:29:43;146338.50;;;5.47;100.00
50226;BME280;36113;50.742;6.432;2023-02-20T04:32:08;146327.31;;;5.42;100.00
50226;BME280;36113;50.742;6.432;2023-02-20T04:34:33;146282.41;;;5.23;100.00
50226;BME280;36113;50.742;6.432;2023-02-20T04:37:08;146322.34;;;5.40;100.00
50226;BME280;36113;50.742;6.432;2023-02-20T04:39:34;146319.81;;;5.39;100.00
50226;BME280;36113;50.742;6.432;2023-02-20T04:41:59;146352.28;;;5.52;100.00
50226;BME280;36113;50.742;6.432;2023-02-20T04:44:25;146353.50;;;5.53;100.00
50226;BME280;36113;50.742;6.432;2023-02-20T04:47:02;146369.75;;;5.59;100.00
50226;BME280;36113;50.742;6.432;2023-02-20T04:49:28;146358.50;;;5.55;100.00
50226;BME280;36113;50.742;6.432;2023-02-20T04:51:53;146362.25;;;5.56;100.00
50226;BME280;36113;50.742;6.432;2023-02-20T04:54:20;146338.50;;;5.47;100.00
50226;BME280;36113;50.742;6.432;2023-02-20T04:56:45;146366.00;;;5.58;100.00
50226;BME280;36113;50.742;6.432;2023-02-20T04:59:10;146367.22;;;5.58;100.00
50226;BME280;36113;50.742;6.432;2023-02-20T05:01:36;146372.25;;;5.60;100.00
50226;BME280;36113;50.742;6.432;2023-02-20T05:04:01;146213.81;;;4.95;100.00
50226;BME280;36113;50.742;6.432;2023-02-20T05:06:26;146383.44;;;5.65;100.00
50226;BME280;36113;50.742;6.432;2023-02-20T05:08:52;146375.94;;;5.62;100.00
50226;BME280;36113;50.742;6.432;2023-02-20T05:11:17;146380.97;;;5.64;100.00
50226;BME280;36113;50.742;6.432;2023-02-20T05:13:42;146304.84;;;5.33;100.00
50226;BME280;36113;50.742;6.432;2023-02-20T05:16:08;146344.78;;;5.49;100.00
50226;BME280;36113;50.742;6.432;2023-02-20T05:18:33;146357.25;;;5.54;100.00
50226;BME280;36113;50.742;6.432;2023-02-20T05:20:58;146357.25;;;5.54;100.00
50226;BME280;36113;50.742;6.432;2023-02-20T05:23:45;146333.53;;;5.44;100.00
50226;BME280;36113;50.742;6.432;2023-02-20T05:26:12;146303.59;;;5.32;100.00
50226;BME280;36113;50.742;6.432;2023-02-20T05:28:41;146346.00;;;5.50;100.00
50226;BME280;36113;50.742;6.432;2023-02-20T05:31:06;146342.25;;;5.48;100.00
50226;BME280;36113;50.742;6.432;2023-02-20T05:33:32;146347.28;;;5.50;100.00
50226;BME280;36113;50.742;6.432;2023-02-20T05:35:57;146341.03;;;5.48;100.00
50226;BME280;36113;50.742;6.432;2023-02-20T05:38:23;146370.97;;;5.60;100.00
50226;BME280;36113;50.742;6.432;2023-02-20T05:40:48;146363.47;;;5.57;100.00
50226;BME280;36113;50.742;6.432;2023-02-20T05:43:15;146359.78;;;5.55;100.00
50226;BME280;36113;50.742;6.432;2023-02-20T05:45:40;146388.44;;;5.67;100.00
50226;BME280;36113;50.742;6.432;2023-02-20T05:48:06;146352.28;;;5.52;100.00
50226;BME280;36113;50.742;6.432;2023-02-20T05:50:31;146367.22;;;5.58;100.00
50226;BME280;36113;50.742;6.432;2023-02-20T05:52:56;146398.44;;;5.71;100.00
50226;BME280;36113;50.742;6.432;2023-02-20T05:55:22;146385.97;;;5.66;100.00
50226;BME280;36113;50.742;6.432;2023-02-20T05:57:47;146407.19;;;5.75;100.00
50226;BME280;36113;50.742;6.432;2023-02-20T06:00:12;146419.66;;;5.80;100.00
50226;BME280;36113;50.742;6.432;2023-02-20T06:02:38;146444.63;;;5.90;100.00
50226;BME280;36113;50.742;6.432;2023-02-20T06:05:04;146438.34;;;5.88;100.00
50226;BME280;36113;50.742;6.432;2023-02-20T06:07:30;146448.38;;;5.92;100.00
50226;BME280;36113;50.742;6.432;2023-02-20T06:09:56;146454.59;;;5.94;100.00
50226;BME280;36113;50.742;6.432;2023-02-20T06:12:22;146462.13;;;5.97;100.00
50226;BME280;36113;50.742;6.432;2023-02-20T06:14:47;146463.38;;;5.98;100.00
50226;BME280;36113;50.742;6.432;2023-02-20T06:17:12;146425.88;;;5.82;100.00
50226;BME280;36113;50.742;6.432;2023-02-20T06:19:37;146444.63;;;5.90;100.00
50226;BME280;36113;50.742;6.432;2023-02-20T06:22:03;146336.06;;;5.45;100.00
50226;BME280;36113;50.742;6.432;2023-02-20T06:24:29;146425.88;;;5.82;100.00
50226;BME280;36113;50.742;6.432;2023-02-20T06:26:54;146425.88;;;5.82;100.00
50226;BME280;36113;50.742;6.432;2023-02-20T06:29:20;146383.44;;;5.65;100.00
50226;BME280;36113;50.742;6.432;2023-02-20T06:31:45;146425.88;;;5.82;100.00
50226;BME280;36113;50.742;6.432;2023-02-20T06:34:11;146410.91;;;5.76;100.00
50226;BME280;36113;50.742;6.432;2023-02-20T06:36:38;146422.13;;;5.81;100.00
50226;BME280;36113;50.742;6.432;2023-02-20T06:39:06;146413.38;;;5.77;100.00
50226;BME280;36113;50.742;6.432;2023-02-20T06:41:32;146418.41;;;5.79;100.00
50226;BME280;36113;50.742;6.432;2023-02-20T06:43:57;146394.69;;;5.70;100.00
50226;BME280;36113;50.742;6.432;2023-02-20T06:46:23;146420.88;;;5.80;100.00
50226;BME280;36113;50.742;6.432;2023-02-20T06:48:51;146428.38;;;5.83;100.00
50226;BME280;36113;50.742;6.432;2023-02-20T06:51:22;146432.13;;;5.85;100.00
50226;BME280;36113;50.742;6.432;2023-02-20T06:53:48;146409.66;;;5.76;100.00
50226;BME280;36113;50.742;6.432;2023-02-20T06:56:17;146438.34;;;5.88;100.00
50226;BME280;36113;50.742;6.432;2023-02-20T06:58:48;146445.84;;;5.91;99.22
50226;BME280;36113;50.742;6.432;2023-02-20T07:01:17;146448.38;;;5.92;99.56
50226;BME280;36113;50.742;6.432;2023-02-20T07:03:45;146463.38;;;5.98;99.04
50226;BME280;36113;50.742;6.432;2023-02-20T07:06:10;146465.88;;;5.99;97.61
50226;BME280;36113;50.742;6.432;2023-02-20T07:08:37;146489.63;;;6.09;96.67
50226;BME280;36113;50.742;6.432;2023-02-20T07:11:02;146502.09;;;6.14;96.16
50226;BME280;36113;50.742;6.432;2023-02-20T07:13:27;146463.38;;;5.98;96.11
50226;BME280;36113;50.742;6.432;2023-02-20T07:15:53;146512.06;;;6.18;96.18
50226;BME280;36113;50.742;6.432;2023-02-20T07:18:18;146514.56;;;6.19;95.64
50226;BME280;36113;50.742;6.432;2023-02-20T07:20:47;146495.84;;;6.11;96.14
50226;BME280;36113;50.742;6.432;2023-02-20T07:23:12;146530.78;;;6.26;95.82
50226;BME280;36113;50.742;6.432;2023-02-20T07:25:38;146518.28;;;6.20;96.55
50226;BME280;36113;50.742;6.432;2023-02-20T07:28:03;146513.28;;;6.18;97.60
50226;BME280;36113;50.742;6.432;2023-02-20T07:30:28;146524.56;;;6.23;97.50
50226;BME280;36113;50.742;6.432;2023-02-20T07:32:54;146503.34;;;6.14;97.02
50226;BME280;36113;50.742;6.432;2023-02-20T07:35:19;146538.28;;;6.29;97.44
50226;BME280;36113;50.742;6.432;2023-02-20T07:37:44;146513.28;;;6.18;97.51
50226;BME280;36113;50.742;6.432;2023-02-20T07:40:11;146489.63;;;6.09;98.82
50226;BME280;36113;50.742;6.432;2023-02-20T07:42:36;146543.25;;;6.31;100.00
50226;BME280;36113;50.742;6.432;2023-02-20T07:45:02;146560.78;;;6.38;99.93
50226;BME280;36113;50.742;6.432;2023-02-20T07:47:27;146505.78;;;6.15;100.00
50226;BME280;36113;50.742;6.432;2023-02-20T07:49:52;146544.53;;;6.31;100.00
50226;BME280;36113;50.742;6.432;2023-02-20T07:52:18;146586.97;;;6.49;100.00
50226;BME280;36113;50.742;6.432;2023-02-20T07:54:43;146604.44;;;6.56;100.00
50226;BME280;36113;50.742;6.432;2023-02-20T07:57:08;146636.94;;;6.69;100.00
50226;BME280;36113;50.742;6.432;2023-02-20T07:59:33;146660.69;;;6.79;100.00
50226;BME280;36113;50.742;6.432;2023-02-20T08:01:59;146669.41;;;6.83;100.00
50226;BME280;36113;50.742;6.432;2023-02-20T08:04:24;146666.91;;;6.82;100.00
50226;BME280;36113;50.742;6.432;2023-02-20T08:06:49;146606.97;;;6.57;100.00
50226;BME280;36113;50.742;6.432;2023-02-20T08:09:15;146690.66;;;6.91;100.00
50226;BME280;36113;50.742;6.432;2023-02-20T08:11:40;146686.91;;;6.90;100.00
50226;BME280;36113;50.742;6.432;2023-02-20T08:14:06;146648.19;;;6.74;100.00
50226;BME280;36113;50.742;6.432;2023-02-20T08:16:31;146746.84;;;7.14;100.00
50226;BME280;36113;50.742;6.432;2023-02-20T08:18:58;146744.38;;;7.13;100.00
50226;BME280;36113;50.742;6.432;2023-02-20T08:21:23;146764.31;;;7.22;100.00
50226;BME280;36113;50.742;6.432;2023-02-20T08:23:48;146785.56;;;7.30;100.00
50226;BME280;36113;50.742;6.432;2023-02-20T08:26:14;146710.66;;;7.00;100.00
50226;BME280;36113;50.742;6.432;2023-02-20T08:28:39;146809.31;;;7.40;100.00
50226;BME280;36113;50.742;6.432;2023-02-20T08:31:05;146808.06;;;7.40;100.00
50226;BME280;36113;50.742;6.432;2023-02-20T08:33:30;146785.56;;;7.30;100.00
50226;BME280;36113;50.742;6.432;2023-02-20T08:35:56;146815.59;;;7.43;100.00
50226;BME280;36113;50.742;6.432;2023-02-20T08:38:32;146801.81;;;7.37;100.00
50226;BME280;36113;50.742;6.432;2023-02-20T08:40:59;146794.34;;;7.34;100.00
50226;BME280;36113;50.742;6.432;2023-02-20T08:43:24;146828.09;;;7.48;100.00
50226;BME280;36113;50.742;6.432;2023-02-20T08:45:50;146854.31;;;7.59;100.00
50226;BME280;36113;50.742;6.432;2023-02-20T08:48:15;146859.31;;;7.61;100.00
50226;BME280;36113;50.742;6.432;2023-02-20T08:50:41;146854.31;;;7.59;100.00
50226;BME280;36113;50.742;6.432;2023-02-20T08:53:06;146840.59;;;7.53;100.00
50226;BME280;36113;50.742;6.432;2023-02-20T08:55:31;146854.31;;;7.59;100.00
50226;BME280;36113;50.742;6.432;2023-02-20T08:57:57;146830.56;;;7.49;100.00
50226;BME280;36113;50.742;6.432;2023-02-20T09:00:22;146839.28;;;7.53;100.00
50226;BME280;36113;50.742;6.432;2023-02-20T09:02:48;146865.56;;;7.63;100.00
50226;BME280;36113;50.742;6.432;2023-02-20T09:05:14;146854.31;;;7.59;100.00
50226;BME280;36113;50.742;6.432;2023-02-20T09:07:39;146885.53;;;7.72;100.00
50226;BME280;36113;50.742;6.432;2023-02-20T09:10:05;146838.06;;;7.52;100.00
50226;BME280;36113;50.742;6.432;2023-02-20T09:12:31;146908.06;;;7.81;100.00
50226;BME280;36113;50.742;6.432;2023-02-20T09:14:56;146840.59;;;7.53;100.00
50226;BME280;36113;50.742;6.432;2023-02-20T09:17:25;146859.31;;;7.61;100.00
50226;BME280;36113;50.742;6.432;2023-02-20T09:19:50;146793.06;;;7.33;100.00
50226;BME280;36113;50.742;6.432;2023-02-20T09:22:23;146785.56;;;7.30;100.00
50226;BME280;36113;50.742;6.432;2023-02-20T09:24:49;146841.81;;;7.54;100.00
50226;BME280;36113;50.742;6.432;2023-02-20T09:27:14;146846.81;;;7.56;100.00
50226;BME280;36113;50.742;6.432;2023-02-20T09:29:40;146859.31;;;7.61;100.00
50226;BME280;36113;50.742;6.432;2023-02-20T09:32:07;146899.31;;;7.77;100.00
50226;BME280;36113;50.742;6.432;2023-02-20T09:34:32;146928.06;;;7.89;100.00
50226;BME280;36113;50.742;6.432;2023-02-20T09:36:57;146909.31;;;7.81;100.00
50226;BME280;36113;50.742;6.432;2023-02-20T09:39:23;146958.06;;;8.01;100.00
50226;BME280;36113;50.742;6.432;2023-02-20T09:47:46;146994.28;;;8.16;100.00
50226;BME280;36113;50.742;6.432;2023-02-20T09:53:57;147013.06;;;8.24;100.00
50226;BME280;36113;50.742;6.432;2023-02-20T09:56:29;146989.31;;;8.14;100.00
50226;BME280;36113;50.742;6.432;2023-02-20T09:59:18;147004.31;;;8.20;100.00
50226;BME280;36113;50.742;6.432;2023-02-20T10:02:03;146970.56;;;8.06;100.00
50226;BME280;36113;50.742;6.432;2023-02-20T10:04:46;147004.31;;;8.20;100.00
50226;BME280;36113;50.742;6.432;2023-02-20T10:09:46;147016.81;;;8.25;100.00
50226;BME280;36113;50.742;6.432;2023-02-20T10:12:31;147036.78;;;8.34;100.00
50226;BME280;36113;50.742;6.432;2023-02-20T10:20:38;147055.56;;;8.41;100.00
50226;BME280;36113;50.742;6.432;2023-02-20T10:25:50;147055.56;;;8.41;100.00
50226;BME280;36113;50.742;6.432;2023-02-20T10:28:18;147065.63;;;8.45;100.00
50226;BME280;36113;50.742;6.432;2023-02-20T10:34:00;147090.63;;;8.56;100.00
50226;BME280;36113;50.742;6.432;2023-02-20T10:36:39;147111.88;;;8.64;100.00
50226;BME280;36113;50.742;6.432;2023-02-20T10:39:09;147131.91;;;8.73;100.00
50226;BME280;36113;50.742;6.432;2023-02-20T10:44:18;147198.22;;;9.00;100.00
50226;BME280;36113;50.742;6.432;2023-02-20T10:51:58;147209.50;;;9.05;100.00
50226;BME280;36113;50.742;6.432;2023-02-20T10:54:37;147179.47;;;8.92;100.00
50226;BME280;36113;50.742;6.432;2023-02-20T11:00:19;147200.75;;;9.01;100.00
50226;BME280;36113;50.742;6.432;2023-02-20T11:02:52;147225.75;;;9.11;100.00
50226;BME280;36113;50.742;6.432;2023-02-20T11:05:22;147239.50;;;9.17;100.00
50226;BME280;36113;50.742;6.432;2023-02-20T11:07:49;147264.53;;;9.27;100.00
50226;BME280;36113;50.742;6.432;2023-02-20T11:10:14;147290.81;;;9.38;100.00
50226;BME280;36113;50.742;6.432;2023-02-20T11:12:55;147277.06;;;9.32;100.00
50226;BME280;36113;50.742;6.432;2023-02-20T11:15:27;147319.59;;;9.50;100.00
50226;BME280;36113;50.742;6.432;2023-02-20T11:17:54;147269.53;;;9.29;100.00
50226;BME280;36113;50.742;6.432;2023-02-20T11:23:03;147250.78;;;9.22;100.00
50226;BME280;36113;50.742;6.432;2023-02-20T11:25:29;147273.28;;;9.31;100.00
50226;BME280;36113;50.742;6.432;2023-02-20T11:27:57;147293.31;;;9.39;100.00
50226;BME280;36113;50.742;6.432;2023-02-20T11:30:28;147307.06;;;9.45;100.00
50226;BME280;36113;50.742;6.432;2023-02-20T11:33:04;147317.06;;;9.49;100.00
50226;BME280;36113;50.742;6.432;2023-02-20T11:35:36;147330.88;;;9.54;100.00
50226;BME280;36113;50.742;6.432;2023-02-20T11:48:35;147422.25;;;9.92;100.00
50226;BME280;36113;50.742;6.432;2023-02-20T11:51:00;147436.00;;;9.98;100.00
50226;BME280;36113;50.742;6.432;2023-02-20T11:53:28;147453.53;;;10.05;100.00
50226;BME280;36113;50.742;6.432;2023-02-20T11:56:11;147446.00;;;10.02;100.00
50226;BME280;36113;50.742;6.432;2023-02-20T11:58:39;147436.00;;;9.98;100.00
50226;BME280;36113;50.742;6.432;2023-02-20T12:01:05;147409.75;;;9.87;100.00
50226;BME280;36113;50.742;6.432;2023-02-20T12:03:32;147410.97;;;9.87;100.00
50226;BME280;36113;50.742;6.432;2023-02-20T12:06:45;147468.59;;;10.11;100.00
50226;BME280;36113;50.742;6.432;2023-02-20T12:11:14;147518.72;;;10.31;100.00
50226;BME280;36113;50.742;6.432;2023-02-20T12:13:42;147531.25;;;10.37;100.00
50226;BME280;36113;50.742;6.432;2023-02-20T12:21:45;147597.59;;;10.64;100.00
50226;BME280;36113;50.742;6.432;2023-02-20T12:27:24;147621.41;;;10.74;100.00
50226;BME280;36113;50.742;6.432;2023-02-20T12:35:29;147618.88;;;10.73;100.00
50226;BME280;36113;50.742;6.432;2023-02-20T12:46:05;147645.22;;;10.83;100.00
50226;BME280;36113;50.742;6.432;2023-02-20T12:54:13;147666.50;;;10.92;100.00
50226;BME280;36113;50.742;6.432;2023-02-20T12:59:29;147656.47;;;10.88;100.00
50226;BME280;36113;50.742;6.432;2023-02-20T13:02:02;147633.94;;;10.79;100.00
50226;BME280;36113;50.742;6.432;2023-02-20T13:04:41;147641.44;;;10.82;100.00
50226;BME280;36113;50.742;6.432;2023-02-20T13:07:16;147635.16;;;10.79;100.00
50226;BME280;36113;50.742;6.432;2023-02-20T13:12:21;147607.63;;;10.68;100.00
50226;BME280;36113;50.742;6.432;2023-02-20T13:20:21;147641.44;;;10.82;100.00
50226;BME280;36113;50.742;6.432;2023-02-20T13:23:04;147635.16;;;10.79;100.00
50226;BME280;36113;50.742;6.432;2023-02-20T13:30:31;147621.41;;;10.74;100.00
50226;BME280;36113;50.742;6.432;2023-02-20T13:33:27;147620.16;;;10.73;100.00
50226;BME280;36113;50.742;6.432;2023-02-20T13:35:54;147603.88;;;10.66;100.00
50226;BME280;36113;50.742;6.432;2023-02-20T13:38:23;147582.59;;;10.58;100.00
50226;BME280;36113;50.742;6.432;2023-02-20T13:46:14;147607.63;;;10.68;100.00
50226;BME280;36113;50.742;6.432;2023-02-20T13:48:49;147617.63;;;10.72;100.00
50226;BME280;36113;50.742;6.432;2023-02-20T13:56:28;147616.41;;;10.72;100.00
50226;BME280;36113;50.742;6.432;2023-02-20T13:58:55;147636.44;;;10.80;100.00
50226;BME280;36113;50.742;6.432;2023-02-20T14:01:21;147636.44;;;10.80;100.00
50226;BME280;36113;50.742;6.432;2023-02-20T14:03:59;147653.97;;;10.87;100.00
50226;BME280;36113;50.742;6.432;2023-02-20T14:06:25;147670.28;;;10.94;100.00
50226;BME280;36113;50.742;6.432;2023-02-20T14:09:09;147638.94;;;10.81;100.00
50226;BME280;36113;50.742;6.432;2023-02-20T14:11:37;147665.28;;;10.92;100.00
50226;BME280;36113;50.742;6.432;2023-02-20T14:14:08;147690.28;;;11.02;100.00
50226;BME280;36113;50.742;6.432;2023-02-20T14:16:37;147699.09;;;11.05;100.00
50226;BME280;36113;50.742;6.432;2023-02-20T14:19:20;147731.66;;;11.19;100.00
50226;BME280;36113;50.742;6.432;2023-02-20T14:21:49;147730.41;;;11.18;100.00
50226;BME280;36113;50.742;6.432;2023-02-20T14:24:26;147710.34;;;11.10;100.00
50226;BME280;36113;50.742;6.432;2023-02-20T14:26:53;147720.41;;;11.14;100.00
50226;BME280;36113;50.742;6.432;2023-02-20T14:29:28;147739.16;;;11.22;100.00
50226;BME280;36113;50.742;6.432;2023-02-20T14:31:56;147742.94;;;11.23;100.00
50226;BME280;36113;50.742;6.432;2023-02-20T14:34:29;147725.41;;;11.16;100.00
50226;BME280;36113;50.742;6.432;2023-02-20T14:39:41;147750.47;;;11.26;100.00
50226;BME280;36113;50.742;6.432;2023-02-20T14:42:14;147746.69;;;11.25;100.00
50226;BME280;36113;50.742;6.432;2023-02-20T14:44:40;147720.41;;;11.14;100.00
50226;BME280;36113;50.742;6.432;2023-02-20T14:47:11;147760.47;;;11.31;100.00
50226;BME280;36113;50.742;6.432;2023-02-20T14:49:38;147670.28;;;10.94;100.00
50226;BME280;36113;50.742;6.432;2023-02-20T14:54:35;147759.22;;;11.30;100.00
50226;BME280;36113;50.742;6.432;2023-02-20T14:57:01;147737.94;;;11.21;100.00
50226;BME280;36113;50.742;6.432;2023-02-20T14:59:32;147752.94;;;11.27;100.00
50226;BME280;36113;50.742;6.432;2023-02-20T15:07:21;147725.41;;;11.16;100.00
50226;BME280;36113;50.742;6.432;2023-02-20T15:09:50;147722.88;;;11.15;100.00
50226;BME280;36113;50.742;6.432;2023-02-20T15:12:29;147722.88;;;11.15;100.00